Aviation Digital Data Service (ADDS)

Output produced by METARs form (0100 UTC 22 September 2017)
found at http://www.aviationweather.gov/adds/metars/
 
DFOO 220000Z 04006KT 9999 -TSRA FEW016 FEW033CB 25/25 Q1014
TAF DFOO 212300Z 2200/2224 18008KT 9999 TS SCT016 SCT033CB 
     TEMPO 2200/2206 09025G35KT 3000 SQ TSRA 
     BECMG 2206/2208 NSW 
     TEMPO 2216/2224 4000 TSRA SCT016 FEW033CB
       
DFFD 220000Z 20008KT 9999 TS FEW016 FEW033CB 24/21 Q1013 NOSIG
TAF DFFD 212300Z 2200/2306 VRB06KT 9999 TS SCT020 FEW036CB 
     TEMPO 2200/2204 4000 TSRA 
     BECMG 2204/2206 NSW 
     PROB30 
     TEMPO 2214/2222 4000 TSRA SCT020 FEW036CB